Archival Weather

Glendale Muni

Glendale, Arizona (KGEU)

Report from: Wednesday, December 6, 2023 6:50 AM MST
Current time: Wednesday, April 24, 2024 11:07 AM MST

Current weather – Weather history – Daily summaries
Weather forecast

Temperature11.0°C (51.8°F)
Dew point2.0°C (35.6°F)
Winds Calm
Visibility10 mi. (16.1 km)
Clouds Few clouds 20,000 ft. (6,096 m)
Altimeter30.09 in.Hg (1019 mB)
Relative humidity54 %
Density altitude-564 ft. (-172 m)
Flight conditions Visual Meteorological Conditions
Raw dataKGEU 061350Z 00000KT 10SM FEW200 11/02 A3009
An error has occurred. This application may no longer respond until reloaded. Reload 🗙